sensor_id;sensor_type;location;lat;lon;timestamp;P1;durP1;ratioP1;P2;durP2;ratioP2
2934;SDS011;2462;51.456;7.248;2023-08-17T00:01:51;2.10;;;1.90;;
2934;SDS011;2462;51.456;7.248;2023-08-17T00:04:17;3.17;;;1.90;;
2934;SDS011;2462;51.456;7.248;2023-08-17T00:06:43;2.53;;;1.90;;
2934;SDS011;2462;51.456;7.248;2023-08-17T00:09:09;1.60;;;1.27;;
2934;SDS011;2462;51.456;7.248;2023-08-17T00:11:35;1.93;;;1.83;;
2934;SDS011;2462;51.456;7.248;2023-08-17T00:14:01;1.97;;;1.67;;
2934;SDS011;2462;51.456;7.248;2023-08-17T00:16:27;1.80;;;1.50;;
2934;SDS011;2462;51.456;7.248;2023-08-17T00:18:53;1.73;;;1.63;;
2934;SDS011;2462;51.456;7.248;2023-08-17T00:21:19;2.00;;;1.90;;
2934;SDS011;2462;51.456;7.248;2023-08-17T00:23:45;2.40;;;1.70;;
2934;SDS011;2462;51.456;7.248;2023-08-17T00:26:11;1.90;;;1.80;;
2934;SDS011;2462;51.456;7.248;2023-08-17T00:28:37;1.90;;;1.60;;
2934;SDS011;2462;51.456;7.248;2023-08-17T00:31:03;1.50;;;1.40;;
2934;SDS011;2462;51.456;7.248;2023-08-17T00:33:29;2.90;;;1.83;;
2934;SDS011;2462;51.456;7.248;2023-08-17T00:35:55;1.87;;;1.70;;
2934;SDS011;2462;51.456;7.248;2023-08-17T00:38:21;1.60;;;1.50;;
2934;SDS011;2462;51.456;7.248;2023-08-17T00:40:47;1.50;;;1.30;;
2934;SDS011;2462;51.456;7.248;2023-08-17T00:43:13;2.07;;;1.77;;
2934;SDS011;2462;51.456;7.248;2023-08-17T00:45:39;1.90;;;1.80;;
2934;SDS011;2462;51.456;7.248;2023-08-17T00:48:06;2.17;;;1.80;;
2934;SDS011;2462;51.456;7.248;2023-08-17T00:50:32;3.20;;;1.73;;
2934;SDS011;2462;51.456;7.248;2023-08-17T00:52:59;1.80;;;1.70;;
2934;SDS011;2462;51.456;7.248;2023-08-17T00:55:26;1.70;;;1.60;;
2934;SDS011;2462;51.456;7.248;2023-08-17T00:57:53;2.53;;;1.40;;
2934;SDS011;2462;51.456;7.248;2023-08-17T01:00:19;2.20;;;1.80;;
2934;SDS011;2462;51.456;7.248;2023-08-17T01:02:45;1.80;;;1.70;;
2934;SDS011;2462;51.456;7.248;2023-08-17T01:05:12;1.67;;;1.53;;
2934;SDS011;2462;51.456;7.248;2023-08-17T01:07:38;2.43;;;1.73;;
2934;SDS011;2462;51.456;7.248;2023-08-17T01:10:04;2.80;;;1.53;;
2934;SDS011;2462;51.456;7.248;2023-08-17T01:17:52;2.00;;;1.80;;
2934;SDS011;2462;51.456;7.248;2023-08-17T01:20:18;4.30;;;1.93;;
2934;SDS011;2462;51.456;7.248;2023-08-17T01:22:45;1.83;;;1.63;;
2934;SDS011;2462;51.456;7.248;2023-08-17T01:25:13;1.80;;;1.70;;
2934;SDS011;2462;51.456;7.248;2023-08-17T01:27:40;1.57;;;1.47;;
2934;SDS011;2462;51.456;7.248;2023-08-17T01:30:07;2.10;;;1.30;;
2934;SDS011;2462;51.456;7.248;2023-08-17T01:35:04;1.97;;;1.67;;
2934;SDS011;2462;51.456;7.248;2023-08-17T01:37:34;1.97;;;1.77;;
2934;SDS011;2462;51.456;7.248;2023-08-17T01:40:02;1.60;;;1.50;;
2934;SDS011;2462;51.456;7.248;2023-08-17T01:42:30;2.17;;;1.80;;
2934;SDS011;2462;51.456;7.248;2023-08-17T01:44:56;2.93;;;1.87;;
2934;SDS011;2462;51.456;7.248;2023-08-17T01:47:22;1.40;;;1.30;;
2934;SDS011;2462;51.456;7.248;2023-08-17T01:49:47;1.70;;;1.43;;
2934;SDS011;2462;51.456;7.248;2023-08-17T01:52:14;1.63;;;1.37;;
2934;SDS011;2462;51.456;7.248;2023-08-17T01:54:40;2.37;;;2.00;;
2934;SDS011;2462;51.456;7.248;2023-08-17T01:57:06;1.90;;;1.43;;
2934;SDS011;2462;51.456;7.248;2023-08-17T01:59:32;1.83;;;1.30;;
2934;SDS011;2462;51.456;7.248;2023-08-17T02:01:58;1.97;;;1.53;;
2934;SDS011;2462;51.456;7.248;2023-08-17T02:04:24;1.93;;;1.33;;
2934;SDS011;2462;51.456;7.248;2023-08-17T02:06:50;1.60;;;1.50;;
2934;SDS011;2462;51.456;7.248;2023-08-17T02:09:16;1.70;;;1.60;;
2934;SDS011;2462;51.456;7.248;2023-08-17T02:11:42;1.70;;;1.60;;
2934;SDS011;2462;51.456;7.248;2023-08-17T02:14:08;3.00;;;1.30;;
2934;SDS011;2462;51.456;7.248;2023-08-17T02:16:34;1.60;;;1.27;;
2934;SDS011;2462;51.456;7.248;2023-08-17T02:19:00;2.13;;;1.73;;
2934;SDS011;2462;51.456;7.248;2023-08-17T02:21:26;1.50;;;1.30;;
2934;SDS011;2462;51.456;7.248;2023-08-17T02:23:52;1.70;;;1.60;;
2934;SDS011;2462;51.456;7.248;2023-08-17T02:26:17;1.93;;;1.50;;
2934;SDS011;2462;51.456;7.248;2023-08-17T02:28:43;1.60;;;1.50;;
2934;SDS011;2462;51.456;7.248;2023-08-17T02:31:09;2.87;;;1.77;;
2934;SDS011;2462;51.456;7.248;2023-08-17T02:33:35;1.97;;;1.77;;
2934;SDS011;2462;51.456;7.248;2023-08-17T02:36:02;2.13;;;1.93;;
2934;SDS011;2462;51.456;7.248;2023-08-17T02:38:28;1.73;;;1.60;;
2934;SDS011;2462;51.456;7.248;2023-08-17T02:40:54;1.80;;;1.20;;
2934;SDS011;2462;51.456;7.248;2023-08-17T02:43:20;1.57;;;1.47;;
2934;SDS011;2462;51.456;7.248;2023-08-17T02:45:51;1.60;;;1.50;;
2934;SDS011;2462;51.456;7.248;2023-08-17T02:48:17;1.80;;;1.70;;
2934;SDS011;2462;51.456;7.248;2023-08-17T02:50:43;2.10;;;2.00;;
2934;SDS011;2462;51.456;7.248;2023-08-17T02:53:09;2.33;;;2.13;;
2934;SDS011;2462;51.456;7.248;2023-08-17T02:55:35;2.60;;;1.50;;
2934;SDS011;2462;51.456;7.248;2023-08-17T02:58:01;1.60;;;1.50;;
2934;SDS011;2462;51.456;7.248;2023-08-17T03:00:27;1.70;;;1.60;;
2934;SDS011;2462;51.456;7.248;2023-08-17T03:02:53;1.70;;;1.60;;
2934;SDS011;2462;51.456;7.248;2023-08-17T03:05:19;2.43;;;1.90;;
2934;SDS011;2462;51.456;7.248;2023-08-17T03:07:45;1.77;;;1.67;;
2934;SDS011;2462;51.456;7.248;2023-08-17T03:10:11;1.60;;;1.50;;
2934;SDS011;2462;51.456;7.248;2023-08-17T03:12:38;1.47;;;1.37;;
2934;SDS011;2462;51.456;7.248;2023-08-17T03:15:04;2.23;;;2.03;;
2934;SDS011;2462;51.456;7.248;2023-08-17T03:17:30;1.70;;;1.60;;
2934;SDS011;2462;51.456;7.248;2023-08-17T03:19:56;2.17;;;1.97;;
2934;SDS011;2462;51.456;7.248;2023-08-17T03:22:25;1.83;;;1.53;;
2934;SDS011;2462;51.456;7.248;2023-08-17T03:24:51;2.20;;;2.00;;
2934;SDS011;2462;51.456;7.248;2023-08-17T03:27:17;1.70;;;1.60;;
2934;SDS011;2462;51.456;7.248;2023-08-17T03:29:42;1.97;;;1.80;;
2934;SDS011;2462;51.456;7.248;2023-08-17T03:32:08;1.73;;;1.63;;
2934;SDS011;2462;51.456;7.248;2023-08-17T03:34:34;1.60;;;1.50;;
2934;SDS011;2462;51.456;7.248;2023-08-17T03:37:00;1.70;;;1.60;;
2934;SDS011;2462;51.456;7.248;2023-08-17T03:39:26;1.40;;;1.30;;
2934;SDS011;2462;51.456;7.248;2023-08-17T03:41:52;1.67;;;1.50;;
2934;SDS011;2462;51.456;7.248;2023-08-17T03:44:18;1.87;;;1.77;;
2934;SDS011;2462;51.456;7.248;2023-08-17T03:46:44;2.13;;;1.90;;
2934;SDS011;2462;51.456;7.248;2023-08-17T03:49:10;1.57;;;1.47;;
2934;SDS011;2462;51.456;7.248;2023-08-17T03:51:36;1.93;;;1.40;;
2934;SDS011;2462;51.456;7.248;2023-08-17T03:54:02;1.70;;;1.60;;
2934;SDS011;2462;51.456;7.248;2023-08-17T03:56:28;1.43;;;1.33;;
2934;SDS011;2462;51.456;7.248;2023-08-17T03:58:54;1.70;;;1.60;;
2934;SDS011;2462;51.456;7.248;2023-08-17T04:01:20;2.33;;;1.90;;
2934;SDS011;2462;51.456;7.248;2023-08-17T04:03:46;1.50;;;1.30;;
2934;SDS011;2462;51.456;7.248;2023-08-17T04:06:12;2.00;;;1.43;;
2934;SDS011;2462;51.456;7.248;2023-08-17T04:08:38;1.73;;;1.63;;
2934;SDS011;2462;51.456;7.248;2023-08-17T04:11:04;2.17;;;2.00;;
2934;SDS011;2462;51.456;7.248;2023-08-17T04:13:30;2.17;;;1.97;;
2934;SDS011;2462;51.456;7.248;2023-08-17T04:15:56;2.30;;;1.77;;
2934;SDS011;2462;51.456;7.248;2023-08-17T04:18:22;1.80;;;1.70;;
2934;SDS011;2462;51.456;7.248;2023-08-17T04:20:48;1.77;;;1.57;;
2934;SDS011;2462;51.456;7.248;2023-08-17T04:23:14;1.53;;;1.40;;
2934;SDS011;2462;51.456;7.248;2023-08-17T04:25:40;2.13;;;1.93;;
2934;SDS011;2462;51.456;7.248;2023-08-17T04:28:06;1.80;;;1.70;;
2934;SDS011;2462;51.456;7.248;2023-08-17T04:30:32;3.00;;;2.00;;
2934;SDS011;2462;51.456;7.248;2023-08-17T04:32:58;1.60;;;1.50;;
2934;SDS011;2462;51.456;7.248;2023-08-17T04:35:24;2.37;;;1.53;;
2934;SDS011;2462;51.456;7.248;2023-08-17T04:37:50;1.70;;;1.60;;
2934;SDS011;2462;51.456;7.248;2023-08-17T04:40:16;1.93;;;1.80;;
2934;SDS011;2462;51.456;7.248;2023-08-17T04:42:42;2.20;;;2.00;;
2934;SDS011;2462;51.456;7.248;2023-08-17T04:45:08;2.00;;;1.90;;
2934;SDS011;2462;51.456;7.248;2023-08-17T04:47:34;1.80;;;1.70;;
2934;SDS011;2462;51.456;7.248;2023-08-17T04:50:00;2.37;;;1.53;;
2934;SDS011;2462;51.456;7.248;2023-08-17T04:52:26;2.60;;;2.00;;
2934;SDS011;2462;51.456;7.248;2023-08-17T04:54:52;1.60;;;1.50;;
2934;SDS011;2462;51.456;7.248;2023-08-17T04:57:18;1.80;;;1.70;;
2934;SDS011;2462;51.456;7.248;2023-08-17T04:59:44;3.00;;;1.60;;
2934;SDS011;2462;51.456;7.248;2023-08-17T05:02:10;2.30;;;2.10;;
2934;SDS011;2462;51.456;7.248;2023-08-17T05:04:36;2.23;;;1.87;;
2934;SDS011;2462;51.456;7.248;2023-08-17T05:07:02;2.10;;;1.97;;
2934;SDS011;2462;51.456;7.248;2023-08-17T05:09:28;1.93;;;1.83;;
2934;SDS011;2462;51.456;7.248;2023-08-17T05:11:55;2.00;;;1.80;;
2934;SDS011;2462;51.456;7.248;2023-08-17T05:14:21;1.80;;;1.70;;
2934;SDS011;2462;51.456;7.248;2023-08-17T05:16:47;2.13;;;2.00;;
2934;SDS011;2462;51.456;7.248;2023-08-17T05:19:13;2.50;;;2.30;;
2934;SDS011;2462;51.456;7.248;2023-08-17T05:21:39;2.87;;;2.67;;
2934;SDS011;2462;51.456;7.248;2023-08-17T05:24:05;2.00;;;1.90;;
2934;SDS011;2462;51.456;7.248;2023-08-17T05:26:31;2.43;;;2.23;;
2934;SDS011;2462;51.456;7.248;2023-08-17T05:28:57;2.83;;;2.53;;
2934;SDS011;2462;51.456;7.248;2023-08-17T05:31:23;2.60;;;2.40;;
2934;SDS011;2462;51.456;7.248;2023-08-17T05:33:49;2.60;;;1.97;;
2934;SDS011;2462;51.456;7.248;2023-08-17T05:36:15;3.33;;;1.67;;
2934;SDS011;2462;51.456;7.248;2023-08-17T05:38:41;2.93;;;2.10;;
2934;SDS011;2462;51.456;7.248;2023-08-17T05:41:07;1.90;;;1.80;;
2934;SDS011;2462;51.456;7.248;2023-08-17T05:43:33;2.17;;;2.07;;
2934;SDS011;2462;51.456;7.248;2023-08-17T05:45:59;3.07;;;2.10;;
2934;SDS011;2462;51.456;7.248;2023-08-17T05:48:25;2.57;;;2.00;;
2934;SDS011;2462;51.456;7.248;2023-08-17T05:50:51;2.67;;;2.47;;
2934;SDS011;2462;51.456;7.248;2023-08-17T05:53:17;3.63;;;1.90;;
2934;SDS011;2462;51.456;7.248;2023-08-17T05:55:43;2.30;;;2.10;;
2934;SDS011;2462;51.456;7.248;2023-08-17T05:58:09;3.03;;;2.30;;
2934;SDS011;2462;51.456;7.248;2023-08-17T06:00:35;2.53;;;2.33;;
2934;SDS011;2462;51.456;7.248;2023-08-17T06:03:01;11.43;;;10.30;;
2934;SDS011;2462;51.456;7.248;2023-08-17T06:05:27;13.60;;;12.13;;
2934;SDS011;2462;51.456;7.248;2023-08-17T06:07:54;15.23;;;12.23;;
2934;SDS011;2462;51.456;7.248;2023-08-17T06:10:20;13.23;;;11.93;;
2934;SDS011;2462;51.456;7.248;2023-08-17T06:12:49;17.17;;;12.93;;
2934;SDS011;2462;51.456;7.248;2023-08-17T06:15:15;14.00;;;12.60;;
2934;SDS011;2462;51.456;7.248;2023-08-17T06:17:41;15.33;;;13.73;;
2934;SDS011;2462;51.456;7.248;2023-08-17T06:20:08;13.90;;;12.47;;
2934;SDS011;2462;51.456;7.248;2023-08-17T06:22:35;11.53;;;10.00;;
2934;SDS011;2462;51.456;7.248;2023-08-17T06:25:01;12.37;;;9.53;;
2934;SDS011;2462;51.456;7.248;2023-08-17T06:27:27;11.47;;;9.80;;
2934;SDS011;2462;51.456;7.248;2023-08-17T06:29:53;9.63;;;8.63;;
2934;SDS011;2462;51.456;7.248;2023-08-17T06:32:18;10.10;;;9.17;;
2934;SDS011;2462;51.456;7.248;2023-08-17T06:34:44;11.30;;;9.87;;
2934;SDS011;2462;51.456;7.248;2023-08-17T06:37:10;9.97;;;9.03;;
2934;SDS011;2462;51.456;7.248;2023-08-17T06:39:36;10.10;;;9.10;;
2934;SDS011;2462;51.456;7.248;2023-08-17T06:42:02;14.00;;;8.10;;
2934;SDS011;2462;51.456;7.248;2023-08-17T06:44:28;10.53;;;9.43;;
2934;SDS011;2462;51.456;7.248;2023-08-17T06:46:57;11.17;;;8.97;;
2934;SDS011;2462;51.456;7.248;2023-08-17T06:49:25;10.70;;;9.30;;
2934;SDS011;2462;51.456;7.248;2023-08-17T06:51:52;9.40;;;7.97;;
2934;SDS011;2462;51.456;7.248;2023-08-17T06:54:18;10.43;;;9.50;;
2934;SDS011;2462;51.456;7.248;2023-08-17T06:56:44;9.47;;;8.57;;
2934;SDS011;2462;51.456;7.248;2023-08-17T06:59:10;10.73;;;7.83;;
2934;SDS011;2462;51.456;7.248;2023-08-17T07:01:37;8.67;;;7.73;;
2934;SDS011;2462;51.456;7.248;2023-08-17T07:04:03;9.60;;;7.80;;
2934;SDS011;2462;51.456;7.248;2023-08-17T07:06:29;10.80;;;8.03;;
2934;SDS011;2462;51.456;7.248;2023-08-17T07:08:55;10.63;;;9.13;;
2934;SDS011;2462;51.456;7.248;2023-08-17T07:11:21;11.97;;;9.50;;
2934;SDS011;2462;51.456;7.248;2023-08-17T07:13:47;8.57;;;7.70;;
2934;SDS011;2462;51.456;7.248;2023-08-17T07:16:13;10.77;;;9.43;;
2934;SDS011;2462;51.456;7.248;2023-08-17T07:18:39;9.13;;;8.23;;
2934;SDS011;2462;51.456;7.248;2023-08-17T07:21:05;10.80;;;9.67;;
2934;SDS011;2462;51.456;7.248;2023-08-17T07:23:31;9.10;;;8.10;;
2934;SDS011;2462;51.456;7.248;2023-08-17T07:25:57;9.00;;;8.20;;
2934;SDS011;2462;51.456;7.248;2023-08-17T07:28:23;11.37;;;9.90;;
2934;SDS011;2462;51.456;7.248;2023-08-17T07:30:50;10.13;;;9.10;;
2934;SDS011;2462;51.456;7.248;2023-08-17T07:33:16;13.17;;;11.03;;
2934;SDS011;2462;51.456;7.248;2023-08-17T07:35:42;10.80;;;9.60;;
2934;SDS011;2462;51.456;7.248;2023-08-17T07:38:08;11.70;;;10.60;;
2934;SDS011;2462;51.456;7.248;2023-08-17T07:40:34;11.37;;;9.80;;
2934;SDS011;2462;51.456;7.248;2023-08-17T07:43:00;11.67;;;9.20;;
2934;SDS011;2462;51.456;7.248;2023-08-17T07:45:26;12.27;;;10.67;;
2934;SDS011;2462;51.456;7.248;2023-08-17T07:47:52;11.30;;;10.20;;
2934;SDS011;2462;51.456;7.248;2023-08-17T07:50:18;10.40;;;9.40;;
2934;SDS011;2462;51.456;7.248;2023-08-17T07:52:46;9.50;;;8.60;;
2934;SDS011;2462;51.456;7.248;2023-08-17T07:55:12;8.87;;;8.07;;
2934;SDS011;2462;51.456;7.248;2023-08-17T07:57:38;14.23;;;9.87;;
2934;SDS011;2462;51.456;7.248;2023-08-17T08:00:04;8.87;;;8.07;;
2934;SDS011;2462;51.456;7.248;2023-08-17T08:02:30;10.70;;;9.60;;
2934;SDS011;2462;51.456;7.248;2023-08-17T08:04:56;10.80;;;9.03;;
2934;SDS011;2462;51.456;7.248;2023-08-17T08:07:22;10.13;;;9.13;;
2934;SDS011;2462;51.456;7.248;2023-08-17T08:09:48;9.77;;;8.70;;
2934;SDS011;2462;51.456;7.248;2023-08-17T08:12:14;8.90;;;8.00;;
2934;SDS011;2462;51.456;7.248;2023-08-17T08:14:40;8.77;;;7.97;;
2934;SDS011;2462;51.456;7.248;2023-08-17T08:17:06;8.67;;;7.87;;
2934;SDS011;2462;51.456;7.248;2023-08-17T08:19:31;8.67;;;7.87;;
2934;SDS011;2462;51.456;7.248;2023-08-17T08:21:58;9.67;;;8.17;;
2934;SDS011;2462;51.456;7.248;2023-08-17T08:24:24;8.83;;;8.03;;
2934;SDS011;2462;51.456;7.248;2023-08-17T08:26:50;7.80;;;7.10;;
2934;SDS011;2462;51.456;7.248;2023-08-17T08:29:18;7.80;;;7.10;;
2934;SDS011;2462;51.456;7.248;2023-08-17T08:31:43;8.27;;;7.50;;
2934;SDS011;2462;51.456;7.248;2023-08-17T08:34:09;9.10;;;8.30;;
2934;SDS011;2462;51.456;7.248;2023-08-17T08:36:35;9.50;;;7.10;;
2934;SDS011;2462;51.456;7.248;2023-08-17T08:39:01;7.77;;;7.07;;
2934;SDS011;2462;51.456;7.248;2023-08-17T08:41:27;9.40;;;7.33;;
2934;SDS011;2462;51.456;7.248;2023-08-17T08:43:55;7.20;;;6.50;;
2934;SDS011;2462;51.456;7.248;2023-08-17T08:46:21;5.83;;;5.43;;
2934;SDS011;2462;51.456;7.248;2023-08-17T08:48:48;6.57;;;5.13;;
2934;SDS011;2462;51.456;7.248;2023-08-17T08:51:16;5.37;;;4.87;;
2934;SDS011;2462;51.456;7.248;2023-08-17T08:53:45;5.77;;;5.13;;
2934;SDS011;2462;51.456;7.248;2023-08-17T08:56:11;6.60;;;6.00;;
2934;SDS011;2462;51.456;7.248;2023-08-17T08:58:37;6.20;;;5.70;;
2934;SDS011;2462;51.456;7.248;2023-08-17T09:01:04;5.87;;;5.33;;
2934;SDS011;2462;51.456;7.248;2023-08-17T09:03:30;7.10;;;6.50;;
2934;SDS011;2462;51.456;7.248;2023-08-17T09:05:57;6.60;;;6.00;;
2934;SDS011;2462;51.456;7.248;2023-08-17T09:08:26;8.33;;;5.60;;
2934;SDS011;2462;51.456;7.248;2023-08-17T09:10:52;8.13;;;5.70;;
2934;SDS011;2462;51.456;7.248;2023-08-17T09:13:19;7.07;;;6.37;;
2934;SDS011;2462;51.456;7.248;2023-08-17T09:15:45;6.87;;;6.27;;
2934;SDS011;2462;51.456;7.248;2023-08-17T09:18:11;6.53;;;5.93;;
2934;SDS011;2462;51.456;7.248;2023-08-17T09:20:40;7.57;;;6.07;;
2934;SDS011;2462;51.456;7.248;2023-08-17T09:23:10;7.43;;;6.80;;
2934;SDS011;2462;51.456;7.248;2023-08-17T09:25:38;6.83;;;6.13;;
2934;SDS011;2462;51.456;7.248;2023-08-17T09:28:08;8.10;;;5.87;;
2934;SDS011;2462;51.456;7.248;2023-08-17T09:30:40;7.53;;;6.33;;
2934;SDS011;2462;51.456;7.248;2023-08-17T09:33:15;7.70;;;5.90;;
2934;SDS011;2462;51.456;7.248;2023-08-17T09:35:41;9.43;;;6.10;;
2934;SDS011;2462;51.456;7.248;2023-08-17T09:38:07;6.57;;;5.90;;
2934;SDS011;2462;51.456;7.248;2023-08-17T09:40:33;6.60;;;6.00;;
2934;SDS011;2462;51.456;7.248;2023-08-17T09:42:59;6.50;;;5.90;;
2934;SDS011;2462;51.456;7.248;2023-08-17T09:45:26;7.83;;;6.33;;
2934;SDS011;2462;51.456;7.248;2023-08-17T09:47:54;7.77;;;5.73;;
2934;SDS011;2462;51.456;7.248;2023-08-17T09:50:22;7.00;;;5.40;;
2934;SDS011;2462;51.456;7.248;2023-08-17T09:52:52;7.33;;;5.73;;
2934;SDS011;2462;51.456;7.248;2023-08-17T09:55:18;7.20;;;6.60;;
2934;SDS011;2462;51.456;7.248;2023-08-17T09:57:45;6.90;;;6.40;;
2934;SDS011;2462;51.456;7.248;2023-08-17T10:00:14;6.30;;;5.67;;
2934;SDS011;2462;51.456;7.248;2023-08-17T10:02:40;6.37;;;5.77;;
2934;SDS011;2462;51.456;7.248;2023-08-17T10:05:06;6.53;;;6.03;;
2934;SDS011;2462;51.456;7.248;2023-08-17T10:07:35;6.70;;;6.10;;
2934;SDS011;2462;51.456;7.248;2023-08-17T10:10:02;6.27;;;5.67;;
2934;SDS011;2462;51.456;7.248;2023-08-17T10:12:30;6.90;;;6.30;;
2934;SDS011;2462;51.456;7.248;2023-08-17T10:14:59;6.47;;;5.87;;
2934;SDS011;2462;51.456;7.248;2023-08-17T10:17:29;6.60;;;5.93;;
2934;SDS011;2462;51.456;7.248;2023-08-17T10:19:57;13.03;;;6.13;;
2934;SDS011;2462;51.456;7.248;2023-08-17T10:24:49;7.10;;;6.20;;
2934;SDS011;2462;51.456;7.248;2023-08-17T10:27:16;6.17;;;5.67;;
2934;SDS011;2462;51.456;7.248;2023-08-17T10:29:42;6.73;;;5.77;;
2934;SDS011;2462;51.456;7.248;2023-08-17T10:32:09;6.77;;;6.23;;
2934;SDS011;2462;51.456;7.248;2023-08-17T10:34:36;6.97;;;6.23;;
2934;SDS011;2462;51.456;7.248;2023-08-17T10:37:03;6.40;;;5.80;;
2934;SDS011;2462;51.456;7.248;2023-08-17T10:39:30;6.37;;;5.87;;
2934;SDS011;2462;51.456;7.248;2023-08-17T10:41:57;7.50;;;6.80;;
2934;SDS011;2462;51.456;7.248;2023-08-17T10:47:23;9.03;;;6.60;;
2934;SDS011;2462;51.456;7.248;2023-08-17T10:49:51;7.37;;;6.67;;
2934;SDS011;2462;51.456;7.248;2023-08-17T10:52:24;6.63;;;6.00;;
2934;SDS011;2462;51.456;7.248;2023-08-17T10:54:50;7.10;;;6.50;;
2934;SDS011;2462;51.456;7.248;2023-08-17T10:57:32;6.37;;;5.77;;
2934;SDS011;2462;51.456;7.248;2023-08-17T11:02:56;6.67;;;6.10;;
2934;SDS011;2462;51.456;7.248;2023-08-17T11:05:33;6.30;;;5.80;;
2934;SDS011;2462;51.456;7.248;2023-08-17T11:08:00;6.43;;;5.93;;
2934;SDS011;2462;51.456;7.248;2023-08-17T11:10:26;6.27;;;5.60;;
2934;SDS011;2462;51.456;7.248;2023-08-17T11:12:54;6.30;;;5.90;;
2934;SDS011;2462;51.456;7.248;2023-08-17T11:15:34;6.20;;;5.80;;
2934;SDS011;2462;51.456;7.248;2023-08-17T11:18:03;5.80;;;5.30;;
2934;SDS011;2462;51.456;7.248;2023-08-17T11:20:29;5.90;;;5.50;;
2934;SDS011;2462;51.456;7.248;2023-08-17T11:22:55;8.27;;;7.50;;
2934;SDS011;2462;51.456;7.248;2023-08-17T11:25:21;7.83;;;6.87;;
2934;SDS011;2462;51.456;7.248;2023-08-17T11:27:47;7.70;;;6.20;;
2934;SDS011;2462;51.456;7.248;2023-08-17T11:30:13;7.77;;;7.03;;
2934;SDS011;2462;51.456;7.248;2023-08-17T11:32:40;9.83;;;8.33;;
2934;SDS011;2462;51.456;7.248;2023-08-17T11:35:06;8.83;;;7.70;;
2934;SDS011;2462;51.456;7.248;2023-08-17T11:37:32;11.00;;;6.80;;
2934;SDS011;2462;51.456;7.248;2023-08-17T11:39:58;7.53;;;6.83;;
2934;SDS011;2462;51.456;7.248;2023-08-17T11:42:25;8.17;;;7.50;;
2934;SDS011;2462;51.456;7.248;2023-08-17T11:44:51;8.23;;;7.53;;
2934;SDS011;2462;51.456;7.248;2023-08-17T11:47:17;10.53;;;7.50;;
2934;SDS011;2462;51.456;7.248;2023-08-17T11:49:43;9.33;;;7.47;;
2934;SDS011;2462;51.456;7.248;2023-08-17T11:52:12;7.50;;;6.77;;
2934;SDS011;2462;51.456;7.248;2023-08-17T11:54:41;9.60;;;7.60;;
2934;SDS011;2462;51.456;7.248;2023-08-17T11:57:07;8.07;;;7.07;;
2934;SDS011;2462;51.456;7.248;2023-08-17T11:59:33;8.43;;;7.13;;
2934;SDS011;2462;51.456;7.248;2023-08-17T12:02:00;12.47;;;8.70;;
2934;SDS011;2462;51.456;7.248;2023-08-17T12:04:26;15.07;;;13.53;;
2934;SDS011;2462;51.456;7.248;2023-08-17T12:06:52;15.40;;;13.87;;
2934;SDS011;2462;51.456;7.248;2023-08-17T12:09:18;17.57;;;15.13;;
2934;SDS011;2462;51.456;7.248;2023-08-17T12:11:44;19.00;;;17.00;;
2934;SDS011;2462;51.456;7.248;2023-08-17T12:14:11;20.07;;;17.90;;
2934;SDS011;2462;51.456;7.248;2023-08-17T12:16:46;23.97;;;21.47;;
2934;SDS011;2462;51.456;7.248;2023-08-17T12:19:13;25.80;;;23.03;;
2934;SDS011;2462;51.456;7.248;2023-08-17T12:21:40;25.00;;;22.40;;
2934;SDS011;2462;51.456;7.248;2023-08-17T12:24:06;24.47;;;21.87;;
2934;SDS011;2462;51.456;7.248;2023-08-17T12:26:32;25.00;;;22.33;;
2934;SDS011;2462;51.456;7.248;2023-08-17T12:29:00;26.93;;;22.87;;
2934;SDS011;2462;51.456;7.248;2023-08-17T12:31:28;26.67;;;23.73;;
2934;SDS011;2462;51.456;7.248;2023-08-17T12:33:54;25.90;;;22.17;;
2934;SDS011;2462;51.456;7.248;2023-08-17T12:36:20;26.47;;;20.97;;
2934;SDS011;2462;51.456;7.248;2023-08-17T12:38:46;23.50;;;21.10;;
2934;SDS011;2462;51.456;7.248;2023-08-17T12:41:13;20.07;;;17.90;;
2934;SDS011;2462;51.456;7.248;2023-08-17T12:43:39;24.20;;;19.80;;
2934;SDS011;2462;51.456;7.248;2023-08-17T12:46:05;21.63;;;19.37;;
2934;SDS011;2462;51.456;7.248;2023-08-17T12:48:31;20.87;;;18.63;;
2934;SDS011;2462;51.456;7.248;2023-08-17T12:50:57;22.10;;;18.80;;
2934;SDS011;2462;51.456;7.248;2023-08-17T12:53:23;20.10;;;18.00;;
2934;SDS011;2462;51.456;7.248;2023-08-17T12:55:49;21.13;;;18.47;;
2934;SDS011;2462;51.456;7.248;2023-08-17T12:58:15;20.33;;;18.20;;
2934;SDS011;2462;51.456;7.248;2023-08-17T13:00:41;20.03;;;17.67;;
2934;SDS011;2462;51.456;7.248;2023-08-17T13:03:07;22.23;;;18.50;;
2934;SDS011;2462;51.456;7.248;2023-08-17T13:05:33;19.23;;;17.33;;
2934;SDS011;2462;51.456;7.248;2023-08-17T13:07:59;18.93;;;16.93;;
2934;SDS011;2462;51.456;7.248;2023-08-17T13:10:25;17.13;;;15.40;;
2934;SDS011;2462;51.456;7.248;2023-08-17T13:12:50;19.43;;;17.43;;
2934;SDS011;2462;51.456;7.248;2023-08-17T13:15:20;19.30;;;17.37;;
2934;SDS011;2462;51.456;7.248;2023-08-17T13:17:46;20.63;;;16.70;;
2934;SDS011;2462;51.456;7.248;2023-08-17T13:20:12;21.60;;;15.87;;
2934;SDS011;2462;51.456;7.248;2023-08-17T13:22:38;19.20;;;15.10;;
2934;SDS011;2462;51.456;7.248;2023-08-17T13:25:04;17.07;;;14.73;;
2934;SDS011;2462;51.456;7.248;2023-08-17T13:27:30;15.50;;;13.30;;
2934;SDS011;2462;51.456;7.248;2023-08-17T13:29:56;15.47;;;13.60;;
2934;SDS011;2462;51.456;7.248;2023-08-17T13:32:26;12.63;;;11.43;;
2934;SDS011;2462;51.456;7.248;2023-08-17T13:34:52;12.30;;;11.00;;
2934;SDS011;2462;51.456;7.248;2023-08-17T13:37:18;14.63;;;12.63;;
2934;SDS011;2462;51.456;7.248;2023-08-17T13:39:45;13.23;;;10.10;;
2934;SDS011;2462;51.456;7.248;2023-08-17T13:42:11;10.70;;;9.63;;
2934;SDS011;2462;51.456;7.248;2023-08-17T13:44:38;12.57;;;10.30;;
2934;SDS011;2462;51.456;7.248;2023-08-17T13:47:04;12.33;;;9.90;;
2934;SDS011;2462;51.456;7.248;2023-08-17T13:49:30;14.27;;;9.90;;
2934;SDS011;2462;51.456;7.248;2023-08-17T13:51:56;10.60;;;9.50;;
2934;SDS011;2462;51.456;7.248;2023-08-17T13:54:22;13.03;;;10.03;;
2934;SDS011;2462;51.456;7.248;2023-08-17T13:56:48;9.77;;;8.77;;
2934;SDS011;2462;51.456;7.248;2023-08-17T13:59:14;10.20;;;9.10;;
2934;SDS011;2462;51.456;7.248;2023-08-17T14:01:40;9.30;;;8.33;;
2934;SDS011;2462;51.456;7.248;2023-08-17T14:04:06;10.53;;;8.80;;
2934;SDS011;2462;51.456;7.248;2023-08-17T14:06:37;11.20;;;10.17;;
2934;SDS011;2462;51.456;7.248;2023-08-17T14:09:03;13.00;;;11.80;;
2934;SDS011;2462;51.456;7.248;2023-08-17T14:11:30;14.97;;;12.07;;
2934;SDS011;2462;51.456;7.248;2023-08-17T14:13:55;13.70;;;12.23;;
2934;SDS011;2462;51.456;7.248;2023-08-17T14:16:21;15.00;;;13.43;;
2934;SDS011;2462;51.456;7.248;2023-08-17T14:18:47;17.07;;;14.00;;
2934;SDS011;2462;51.456;7.248;2023-08-17T14:21:13;13.80;;;12.33;;
2934;SDS011;2462;51.456;7.248;2023-08-17T14:23:39;16.60;;;14.07;;
2934;SDS011;2462;51.456;7.248;2023-08-17T14:26:06;14.60;;;13.20;;
2934;SDS011;2462;51.456;7.248;2023-08-17T14:28:32;16.93;;;12.27;;
2934;SDS011;2462;51.456;7.248;2023-08-17T14:30:58;12.90;;;11.60;;
2934;SDS011;2462;51.456;7.248;2023-08-17T14:33:24;14.33;;;12.40;;
2934;SDS011;2462;51.456;7.248;2023-08-17T14:35:50;20.77;;;12.37;;
2934;SDS011;2462;51.456;7.248;2023-08-17T14:38:16;14.27;;;12.40;;
2934;SDS011;2462;51.456;7.248;2023-08-17T14:40:45;16.63;;;11.90;;
2934;SDS011;2462;51.456;7.248;2023-08-17T14:43:12;14.13;;;12.37;;
2934;SDS011;2462;51.456;7.248;2023-08-17T14:45:41;14.03;;;11.97;;
2934;SDS011;2462;51.456;7.248;2023-08-17T14:48:07;15.70;;;11.53;;
2934;SDS011;2462;51.456;7.248;2023-08-17T14:50:33;13.43;;;12.03;;
2934;SDS011;2462;51.456;7.248;2023-08-17T14:53:00;14.03;;;11.97;;
2934;SDS011;2462;51.456;7.248;2023-08-17T14:55:31;15.37;;;11.27;;
2934;SDS011;2462;51.456;7.248;2023-08-17T14:57:57;11.73;;;10.53;;
2934;SDS011;2462;51.456;7.248;2023-08-17T15:00:24;13.67;;;10.57;;
2934;SDS011;2462;51.456;7.248;2023-08-17T15:02:50;12.50;;;9.40;;
2934;SDS011;2462;51.456;7.248;2023-08-17T15:05:16;9.77;;;8.40;;
2934;SDS011;2462;51.456;7.248;2023-08-17T15:07:42;9.53;;;8.60;;
2934;SDS011;2462;51.456;7.248;2023-08-17T15:10:08;9.73;;;8.73;;
2934;SDS011;2462;51.456;7.248;2023-08-17T15:12:34;8.80;;;7.90;;
2934;SDS011;2462;51.456;7.248;2023-08-17T15:15:00;9.70;;;8.70;;
2934;SDS011;2462;51.456;7.248;2023-08-17T15:17:26;14.83;;;10.27;;
2934;SDS011;2462;51.456;7.248;2023-08-17T15:19:52;12.23;;;11.03;;